Noxon, Montana
Current Conditions -  °F | °C
As of 7:33 PM on Saturday 22 Nov 2014 (Local Time) from KMLP Reporting Station
Light Snow Light Snow  
Wind Chill: 14°   Ceiling: 100
Heat Index: 24°   Visibility: 0.5mi
Dew Point: 23°   Wind: 10mph
Humidity: 96%   Direction: 310°NW
Pressure: 29.69"   Gusts: 20mph
Location:  48°N, 115.78°W
Report Text: KMLP 230233Z AUTO 31009G17KT 260V340 1/2SM -SN FZFG VV001 M04/M05 A2969 RMK AO2 P0000 T10441050
Loading
Personal Weather Stations






























Interactive Weather Map New forecast layout! Learn more

10-Day Weather Forecast

Advertisements
Track Severe Weather on mobile